FDX714 PTPN-NTAA
Flight info
| Callsign | FDX714 |
|---|---|
| Flight time | N/A |
| Altitude | 33000 |
| Route | DCT NI A584 FA B577 TUT G224 OPERU DCT IDUTA IDUTA3V |
| Aircraft | B77L/H-SDE1E2E3FGHIJ2J3J4J5M1RWXY/LB1D1 |
Departure
| Time | 2026-05-05 00:00 |
|---|---|
| Airport | Pohnpei International Airport (PTPN) |
Arrival
| Time | N/A |
|---|---|
| Airport | Fa'a'ā International Airport (NTAA) |
| Time | Latitude | Longitude | Altitude | Speed | Heading |
|---|---|---|---|---|---|
| 2026-05-04 23:23 | 6.98204 | 158.20395 | 22 ft | 0 kts | 178° |
| 2026-05-04 23:55 | 6.98197 | 158.20389 | 24 ft | 3 kts | 222° |
| 2026-05-04 23:56 | 6.98201 | 158.20363 | 25 ft | 5 kts | 291° |
| 2026-05-04 23:56 | 6.98230 | 158.20341 | 25 ft | 5 kts | 349° |
| 2026-05-04 23:56 | 6.98267 | 158.20350 | 24 ft | 5 kts | 15° |
| 2026-05-04 23:56 | 6.98305 | 158.20356 | 25 ft | 5 kts | 7° |
| 2026-05-04 23:57 | 6.98343 | 158.20357 | 22 ft | 5 kts | 360° |
| 2026-05-04 23:57 | 6.98381 | 158.20357 | 26 ft | 6 kts | 0° |
| 2026-05-04 23:57 | 6.98431 | 158.20357 | 22 ft | 9 kts | 0° |
| 2026-05-04 23:57 | 6.98502 | 158.20340 | 21 ft | 12 kts | 311° |
| 2026-05-04 23:58 | 6.98514 | 158.20249 | 21 ft | 14 kts | 270° |
| 2026-05-04 23:58 | 6.98485 | 158.20157 | 24 ft | 14 kts | 243° |
| 2026-05-04 23:58 | 6.98480 | 158.20080 | 23 ft | 8 kts | 319° |
| 2026-05-04 23:58 | 6.98510 | 158.20094 | 22 ft | 5 kts | 63° |
| 2026-05-04 23:59 | 6.98512 | 158.20115 | 25 ft | 0 kts | 89° |
| 2026-05-04 23:59 | 6.98512 | 158.20142 | 25 ft | 25 kts | 89° |
| 2026-05-04 23:59 | 6.98511 | 158.20645 | 22 ft | 117 kts | 89° |
| 2026-05-05 00:00 | 6.98509 | 158.21734 | 146 ft | 182 kts | 89° |
| 2026-05-05 00:00 | 6.98501 | 158.22164 | 426 ft | 181 kts | 91° |
| 2026-05-05 00:00 | 6.98397 | 158.24269 | 2172 ft | 192 kts | 89° |
| 2026-05-05 00:00 | 6.98380 | 158.25664 | 2994 ft | 205 kts | 86° |
| 2026-05-05 00:01 | 6.98393 | 158.27155 | 3406 ft | 224 kts | 86° |
| 2026-05-05 00:01 | 6.98387 | 158.28810 | 3804 ft | 242 kts | 88° |
| 2026-05-05 00:01 | 6.98354 | 158.30477 | 4764 ft | 237 kts | 89° |
| 2026-05-05 00:01 | 6.98310 | 158.32148 | 5440 ft | 245 kts | 89° |
| 2026-05-05 00:02 | 6.98245 | 158.33871 | 6230 ft | 247 kts | 90° |
| 2026-05-05 00:02 | 6.98004 | 158.35596 | 6809 ft | 257 kts | 107° |
| 2026-05-05 00:02 | 6.97103 | 158.37163 | 7532 ft | 265 kts | 128° |
| 2026-05-05 00:02 | 6.95673 | 158.38374 | 8231 ft | 272 kts | 142° |
| 2026-05-05 00:03 | 6.94052 | 158.39413 | 8908 ft | 279 kts | 144° |
| 2026-05-05 00:03 | 6.92378 | 158.40453 | 9520 ft | 282 kts | 140° |
| 2026-05-05 00:03 | 6.90969 | 158.41828 | 10001 ft | 286 kts | 126° |
| 2026-05-05 00:03 | 6.89691 | 158.43440 | 10286 ft | 306 kts | 126° |
| 2026-05-05 00:04 | 6.88301 | 158.45164 | 10483 ft | 329 kts | 127° |
| 2026-05-05 00:04 | 6.86794 | 158.47003 | 10676 ft | 352 kts | 127° |
| 2026-05-05 00:04 | 6.85180 | 158.48947 | 10914 ft | 370 kts | 127° |
| 2026-05-05 00:04 | 6.83490 | 158.50953 | 11372 ft | 381 kts | 128° |
| 2026-05-05 00:05 | 6.81753 | 158.52992 | 11976 ft | 387 kts | 129° |
| 2026-05-05 00:05 | 6.79982 | 158.55057 | 12601 ft | 392 kts | 129° |
| 2026-05-05 00:05 | 6.78190 | 158.57142 | 13257 ft | 396 kts | 129° |
| 2026-05-05 00:05 | 6.76379 | 158.59246 | 13948 ft | 400 kts | 128° |
| 2026-05-05 00:06 | 6.74543 | 158.61373 | 14572 ft | 405 kts | 128° |
| 2026-05-05 00:06 | 6.72683 | 158.63524 | 15091 ft | 410 kts | 129° |
| 2026-05-05 00:06 | 6.70806 | 158.65690 | 15710 ft | 412 kts | 129° |
| 2026-05-05 00:06 | 6.68946 | 158.67839 | 16309 ft | 414 kts | 128° |
| 2026-05-05 00:07 | 6.67017 | 158.70068 | 16881 ft | 418 kts | 129° |
| 2026-05-05 00:07 | 6.65130 | 158.72248 | 17435 ft | 421 kts | 128° |
| 2026-05-05 00:07 | 6.63200 | 158.74482 | 17977 ft | 425 kts | 128° |
| 2026-05-05 00:07 | 6.61253 | 158.76736 | 18461 ft | 429 kts | 129° |
| 2026-05-05 00:08 | 6.59288 | 158.79013 | 19012 ft | 433 kts | 129° |
| 2026-05-05 00:08 | 6.57309 | 158.81306 | 19553 ft | 435 kts | 129° |
| 2026-05-05 00:08 | 6.55317 | 158.83607 | 20056 ft | 437 kts | 129° |
| 2026-05-05 00:08 | 6.53314 | 158.85917 | 20532 ft | 439 kts | 129° |
| 2026-05-05 00:09 | 6.51300 | 158.88245 | 20964 ft | 443 kts | 130° |
| 2026-05-05 00:09 | 6.49265 | 158.90596 | 21369 ft | 447 kts | 130° |
| 2026-05-05 00:09 | 6.47217 | 158.92966 | 21777 ft | 450 kts | 130° |
| 2026-05-05 00:09 | 6.45159 | 158.95345 | 22250 ft | 452 kts | 130° |
| 2026-05-05 00:10 | 6.43091 | 158.97733 | 22696 ft | 454 kts | 130° |
| 2026-05-05 00:10 | 6.41714 | 158.99325 | 22972 ft | 456 kts | 130° |
| 2026-05-05 00:10 | 6.39631 | 159.01733 | 23368 ft | 459 kts | 130° |
| 2026-05-05 00:10 | 6.37533 | 159.04156 | 23794 ft | 459 kts | 130° |
| 2026-05-05 00:11 | 6.35429 | 159.06585 | 24120 ft | 462 kts | 130° |
| 2026-05-05 00:11 | 6.33316 | 159.09023 | 24499 ft | 463 kts | 130° |
| 2026-05-05 00:11 | 6.31191 | 159.11476 | 24800 ft | 466 kts | 130° |
| 2026-05-05 00:11 | 6.29067 | 159.13931 | 25123 ft | 468 kts | 130° |
| 2026-05-05 00:12 | 6.26916 | 159.16414 | 25371 ft | 472 kts | 130° |
| 2026-05-05 00:12 | 6.24758 | 159.18905 | 25691 ft | 474 kts | 130° |
| 2026-05-05 00:12 | 6.22591 | 159.21406 | 26046 ft | 475 kts | 130° |
| 2026-05-05 00:12 | 6.20423 | 159.23906 | 26399 ft | 475 kts | 130° |
| 2026-05-05 00:13 | 6.18245 | 159.26418 | 26730 ft | 477 kts | 130° |
| 2026-05-05 00:13 | 6.16059 | 159.28942 | 26994 ft | 481 kts | 130° |
| 2026-05-05 00:13 | 6.13858 | 159.31483 | 27305 ft | 483 kts | 130° |
| 2026-05-05 00:13 | 6.11639 | 159.34038 | 27509 ft | 487 kts | 130° |
| 2026-05-05 00:14 | 6.09416 | 159.36603 | 27939 ft | 486 kts | 130° |
| 2026-05-05 00:14 | 6.07194 | 159.39167 | 28248 ft | 487 kts | 130° |
| 2026-05-05 00:14 | 6.04960 | 159.41742 | 28483 ft | 490 kts | 130° |
| 2026-05-05 00:14 | 6.02711 | 159.44334 | 28749 ft | 491 kts | 130° |
| 2026-05-05 00:15 | 6.00463 | 159.46924 | 28978 ft | 494 kts | 130° |
| 2026-05-05 00:15 | 5.98196 | 159.49537 | 29138 ft | 497 kts | 130° |
| 2026-05-05 00:15 | 5.95928 | 159.52150 | 29444 ft | 496 kts | 130° |
| 2026-05-05 00:15 | 5.93674 | 159.54743 | 30030 ft | 489 kts | 130° |
| 2026-05-05 00:16 | 5.91440 | 159.57315 | 30335 ft | 489 kts | 129° |
| 2026-05-05 00:16 | 5.89205 | 159.59883 | 30606 ft | 488 kts | 130° |
| 2026-05-05 00:16 | 5.86973 | 159.62453 | 30859 ft | 489 kts | 130° |
| 2026-05-05 00:16 | 5.84741 | 159.65026 | 31195 ft | 487 kts | 130° |
| 2026-05-05 00:17 | 5.82518 | 159.67587 | 31555 ft | 485 kts | 129° |
| 2026-05-05 00:17 | 5.80312 | 159.70127 | 31985 ft | 482 kts | 129° |
| 2026-05-05 00:17 | 5.78100 | 159.72676 | 32203 ft | 483 kts | 130° |
| 2026-05-05 00:17 | 5.75891 | 159.75218 | 32403 ft | 486 kts | 130° |
| 2026-05-05 00:18 | 5.73668 | 159.77775 | 32673 ft | 485 kts | 130° |
| 2026-05-05 00:18 | 5.71460 | 159.80313 | 32863 ft | 483 kts | 129° |
| 2026-05-05 00:18 | 5.69253 | 159.82851 | 32894 ft | 482 kts | 129° |
| 2026-05-05 00:19 | 5.64836 | 159.87930 | 32866 ft | 484 kts | 130° |
| 2026-05-05 00:19 | 5.60387 | 159.93045 | 32887 ft | 487 kts | 130° |
| 2026-05-05 00:20 | 5.55952 | 159.98143 | 32861 ft | 481 kts | 130° |
| 2026-05-05 00:20 | 5.51554 | 160.03197 | 32868 ft | 482 kts | 130° |
| 2026-05-05 00:21 | 5.47124 | 160.08291 | 32867 ft | 487 kts | 130° |
| 2026-05-05 00:21 | 5.42690 | 160.13381 | 32863 ft | 481 kts | 130° |
| 2026-05-05 00:22 | 5.38314 | 160.18407 | 32870 ft | 483 kts | 130° |
| 2026-05-05 00:22 | 5.33853 | 160.23527 | 32865 ft | 485 kts | 130° |
| 2026-05-05 00:23 | 5.29404 | 160.28633 | 32853 ft | 487 kts | 130° |
| 2026-05-05 00:23 | 5.24957 | 160.33743 | 32854 ft | 485 kts | 130° |
| 2026-05-05 00:24 | 5.20539 | 160.38798 | 32878 ft | 484 kts | 130° |
| 2026-05-05 00:24 | 5.16108 | 160.43871 | 32878 ft | 483 kts | 129° |
| 2026-05-05 00:25 | 5.11709 | 160.48969 | 32855 ft | 484 kts | 130° |
| 2026-05-05 00:25 | 5.07277 | 160.54038 | 32886 ft | 483 kts | 130° |
| 2026-05-05 00:26 | 5.02841 | 160.59104 | 32866 ft | 483 kts | 130° |
| 2026-05-05 00:26 | 4.98390 | 160.64199 | 32881 ft | 489 kts | 130° |
| 2026-05-05 00:27 | 4.93904 | 160.69333 | 32861 ft | 489 kts | 130° |
| 2026-05-05 00:27 | 4.89462 | 160.74422 | 32864 ft | 479 kts | 130° |
| 2026-05-05 00:28 | 4.85089 | 160.79435 | 32878 ft | 478 kts | 130° |
| 2026-05-05 00:28 | 4.80703 | 160.84453 | 32879 ft | 478 kts | 130° |
| 2026-05-05 00:29 | 4.76319 | 160.89470 | 32882 ft | 478 kts | 130° |
| 2026-05-05 00:29 | 4.71935 | 160.94492 | 32873 ft | 478 kts | 130° |
| 2026-05-05 00:30 | 4.67550 | 160.99511 | 32873 ft | 478 kts | 130° |
| 2026-05-05 00:30 | 4.63159 | 161.04532 | 32856 ft | 479 kts | 130° |
| 2026-05-05 00:31 | 4.58766 | 161.09558 | 32872 ft | 485 kts | 130° |
| 2026-05-05 00:31 | 4.54370 | 161.14583 | 32849 ft | 475 kts | 130° |
| 2026-05-05 00:32 | 4.50048 | 161.19524 | 32852 ft | 469 kts | 130° |
| 2026-05-05 00:32 | 4.45751 | 161.24435 | 32855 ft | 468 kts | 130° |
| 2026-05-05 00:33 | 4.41459 | 161.29337 | 32854 ft | 468 kts | 130° |
| 2026-05-05 00:33 | 4.37150 | 161.34243 | 32853 ft | 470 kts | 130° |
| 2026-05-05 00:34 | 4.32847 | 161.39194 | 32844 ft | 472 kts | 131° |
| 2026-05-05 00:34 | 4.28513 | 161.44135 | 32849 ft | 472 kts | 131° |
| 2026-05-05 00:35 | 4.24171 | 161.49096 | 32854 ft | 473 kts | 131° |